Time;durP1;ratioP1;P1;durP2;ratioP2;P2;SDS_P1;SDS_P2;PMS_P1;PMS_P2;Temp;Humidity;BMP_temperature;BMP_pressure;BME280_temperature;BME280_humidity;BME280_pressure;Samples;Min_cycle;Max_cycle;Signal;HPM_P1;HPM_P2
2023/09/14 00:01:00;;;;;;;10.95;3.97;;;12.30;99.90;;;;;;4985140;28;20037;-52
2023/09/14 00:03:25;;;;;;;12.20;4.10;;;12.20;99.90;;;;;;4985181;28;20046;-53
2023/09/14 00:05:51;;;;;;;11.35;4.50;;;12.30;99.90;;;;;;4986407;28;20065;-51
2023/09/14 00:08:17;;;;;;;9.98;3.90;;;12.30;99.90;;;;;;4999288;28;20128;-50
2023/09/14 00:10:43;;;;;;;7.57;3.75;;;12.30;99.90;;;;;;5004116;28;20060;-55
2023/09/14 00:13:10;;;;;;;8.18;3.35;;;12.30;99.90;;;;;;5004730;28;20388;-55
2023/09/14 00:15:38;;;;;;;8.20;3.50;;;12.40;99.90;;;;;;5005118;28;20037;-55
2023/09/14 00:18:04;;;;;;;8.45;3.63;;;12.40;99.90;;;;;;5003197;28;20480;-53
2023/09/14 00:20:30;;;;;;;9.23;3.08;;;12.40;99.90;;;;;;5004989;28;20045;-52
2023/09/14 00:22:58;;;;;;;9.70;4.18;;;12.40;99.90;;;;;;5004296;28;20084;-54
2023/09/14 00:25:25;;;;;;;7.38;3.42;;;12.50;99.90;;;;;;4987181;28;20053;-54
2023/09/14 00:27:52;;;;;;;8.57;3.85;;;12.30;99.90;;;;;;4983936;28;20046;-52
2023/09/14 00:30:19;;;;;;;8.75;3.92;;;12.30;99.90;;;;;;4987463;28;20034;-54
2023/09/14 00:32:47;;;;;;;8.00;3.60;;;12.30;99.90;;;;;;4992644;28;20050;-53
2023/09/14 00:35:13;;;;;;;5.63;3.50;;;12.30;99.90;;;;;;4984940;28;20042;-53
2023/09/14 00:37:40;;;;;;;8.02;3.78;;;12.30;99.90;;;;;;4985267;28;20050;-52
2023/09/14 00:40:08;;;;;;;10.75;3.83;;;12.40;99.90;;;;;;4984023;28;20054;-49
2023/09/14 00:42:39;;;;;;;9.13;3.75;;;12.30;99.90;;;;;;4984359;28;20049;-54
2023/09/14 00:45:10;;;;;;;11.65;4.20;;;12.30;99.90;;;;;;4989765;28;20056;-54
2023/09/14 00:47:36;;;;;;;10.38;3.63;;;12.20;99.90;;;;;;4984745;28;20057;-53
2023/09/14 00:50:04;;;;;;;8.75;4.25;;;12.20;99.90;;;;;;4983919;28;20125;-54
2023/09/14 00:52:35;;;;;;;9.07;3.67;;;12.20;99.90;;;;;;4984985;28;20951;-54
2023/09/14 00:55:03;;;;;;;8.13;4.00;;;12.20;99.90;;;;;;4984797;28;20076;-53
2023/09/14 00:57:29;;;;;;;11.77;4.00;;;12.20;99.90;;;;;;4984461;28;20169;-51
2023/09/14 00:59:55;;;;;;;11.15;3.75;;;12.20;99.90;;;;;;4993887;28;20069;-54
2023/09/14 01:02:20;;;;;;;7.50;3.72;;;12.20;99.90;;;;;;5003888;28;20050;-51
2023/09/14 01:04:47;;;;;;;8.93;3.58;;;12.10;99.90;;;;;;5003996;28;20488;-51
2023/09/14 01:07:15;;;;;;;7.55;3.22;;;12.20;99.90;;;;;;5003144;28;20066;-52
2023/09/14 01:09:41;;;;;;;10.13;3.83;;;12.10;99.90;;;;;;5004060;28;20046;-51
2023/09/14 01:12:08;;;;;;;7.70;3.70;;;12.10;99.90;;;;;;5003667;28;20055;-54
2023/09/14 01:14:46;;;;;;;7.90;3.60;;;12.10;99.90;;;;;;5004155;28;20053;-50
2023/09/14 01:17:14;;;;;;;9.95;3.80;;;12.10;99.90;;;;;;5002537;28;20053;-53
2023/09/14 01:19:50;;;;;;;12.48;3.92;;;12.10;99.90;;;;;;5003664;28;20041;-53
2023/09/14 01:22:37;;;;;;;7.13;3.28;;;12.10;99.90;;;;;;5003558;28;20402;-54
2023/09/14 01:25:32;;;;;;;6.47;3.30;;;12.10;99.90;;;;;;4986778;28;20097;-53
2023/09/14 01:28:18;;;;;;;13.20;4.10;;;12.20;99.90;;;;;;5003353;28;20052;-55
2023/09/14 01:30:44;;;;;;;7.53;3.58;;;12.10;99.90;;;;;;4996463;28;20049;-52
2023/09/14 01:33:12;;;;;;;7.43;3.35;;;12.50;99.90;;;;;;4974206;28;20046;-54
2023/09/14 01:35:45;;;;;;;8.23;3.85;;;12.20;99.90;;;;;;4984068;28;20526;-53
2023/09/14 01:38:13;;;;;;;7.47;3.63;;;12.10;99.90;;;;;;4983090;28;20410;-53
2023/09/14 01:40:41;;;;;;;11.57;3.95;;;12.20;99.90;;;;;;4984532;28;20065;-54
2023/09/14 01:43:07;;;;;;;8.10;3.53;;;12.20;99.90;;;;;;4967040;28;20058;-52
2023/09/14 01:45:33;;;;;;;6.93;3.70;;;12.20;99.90;;;;;;4984240;28;20101;-54
2023/09/14 01:48:02;;;;;;;8.98;3.80;;;12.40;99.90;;;;;;4983802;28;20050;-54
2023/09/14 01:50:29;;;;;;;10.82;3.58;;;12.20;99.90;;;;;;4984358;28;20050;-54
2023/09/14 01:52:56;;;;;;;8.20;3.55;;;12.20;99.90;;;;;;4983807;28;20121;-51
2023/09/14 01:55:21;;;;;;;11.43;3.83;;;12.20;99.90;;;;;;4983233;28;20053;-50
2023/09/14 01:57:47;;;;;;;6.75;3.45;;;12.20;99.90;;;;;;4983970;28;20038;-53
2023/09/14 02:00:13;;;;;;;9.70;3.55;;;12.10;99.90;;;;;;4984659;28;20073;-52
2023/09/14 02:02:38;;;;;;;10.68;3.63;;;12.20;99.90;;;;;;4983840;28;20589;-52
2023/09/14 02:05:04;;;;;;;8.43;3.67;;;12.20;99.90;;;;;;4988312;28;20056;-54
2023/09/14 02:07:30;;;;;;;5.60;3.17;;;12.20;99.90;;;;;;4987493;28;20423;-52
2023/09/14 02:09:55;;;;;;;7.18;3.08;;;12.70;99.90;;;;;;4988044;28;20054;-54
2023/09/14 02:12:21;;;;;;;6.05;3.40;;;12.20;99.90;;;;;;4987144;28;20070;-53
2023/09/14 02:14:47;;;;;;;9.48;3.60;;;12.20;99.90;;;;;;4987655;28;20051;-52
2023/09/14 02:17:13;;;;;;;10.68;3.42;;;12.30;99.90;;;;;;4968972;28;20054;-52
2023/09/14 02:19:38;;;;;;;10.02;3.55;;;12.20;99.90;;;;;;4969968;28;20449;-52
2023/09/14 02:22:04;;;;;;;6.20;3.13;;;12.20;99.90;;;;;;4986775;28;20042;-54
2023/09/14 02:24:30;;;;;;;8.90;3.78;;;12.20;99.90;;;;;;4987581;28;20493;-52
2023/09/14 02:26:55;;;;;;;8.93;3.33;;;12.20;99.90;;;;;;4987011;28;20093;-54
2023/09/14 02:29:21;;;;;;;7.65;3.42;;;12.50;99.90;;;;;;4986581;28;20378;-51
2023/09/14 02:31:47;;;;;;;6.80;2.95;;;12.20;99.90;;;;;;4996910;28;20076;-53
2023/09/14 02:34:12;;;;;;;9.10;3.10;;;12.20;99.90;;;;;;4985870;28;20523;-54
2023/09/14 02:36:38;;;;;;;7.10;3.00;;;12.30;99.90;;;;;;4986832;28;20450;-53
2023/09/14 02:39:04;;;;;;;7.95;3.75;;;12.30;99.90;;;;;;4968858;28;20050;-51
2023/09/14 02:41:30;;;;;;;6.75;3.05;;;12.30;99.90;;;;;;5004203;28;20048;-55
2023/09/14 02:43:56;;;;;;;7.95;3.13;;;12.40;99.90;;;;;;5005813;28;20103;-51
2023/09/14 02:46:22;;;;;;;7.03;3.10;;;12.30;99.90;;;;;;5005183;28;20099;-54
2023/09/14 02:48:47;;;;;;;8.35;3.30;;;12.30;99.90;;;;;;5006542;28;21002;-55
2023/09/14 02:51:13;;;;;;;10.23;3.30;;;12.30;99.90;;;;;;5004766;28;20133;-51
2023/09/14 02:53:38;;;;;;;7.95;3.22;;;12.30;99.90;;;;;;4968426;28;20058;-53
2023/09/14 02:56:10;;;;;;;7.93;3.30;;;12.80;99.90;;;;;;4986853;28;20034;-52
2023/09/14 02:58:36;;;;;;;6.88;3.17;;;12.30;99.90;;;;;;4986252;28;20038;-51
2023/09/14 03:01:09;;;;;;;6.85;3.30;;;13.00;99.90;;;;;;4986089;28;20493;-53
2023/09/14 03:03:39;;;;;;;6.57;3.00;;;12.30;99.90;;;;;;4985878;28;20093;-52
2023/09/14 03:06:05;;;;;;;7.03;3.28;;;12.50;99.90;;;;;;4985973;28;20090;-54
2023/09/14 03:08:32;;;;;;;8.52;3.50;;;12.30;99.90;;;;;;4990686;28;20073;-52
2023/09/14 03:10:58;;;;;;;8.02;3.22;;;12.60;99.90;;;;;;5005338;28;20053;-49
2023/09/14 03:13:24;;;;;;;7.45;3.40;;;12.40;99.90;;;;;;4987957;28;20129;-51
2023/09/14 03:15:55;;;;;;;6.50;3.60;;;12.30;99.90;;;;;;5005355;28;20117;-54
2023/09/14 03:18:20;;;;;;;8.45;3.28;;;12.30;99.90;;;;;;5005462;28;20053;-50
2023/09/14 03:20:46;;;;;;;7.72;3.13;;;12.30;99.90;;;;;;5005102;28;20033;-52
2023/09/14 03:23:12;;;;;;;8.95;3.50;;;12.20;99.90;;;;;;5005698;28;20112;-52
2023/09/14 03:25:37;;;;;;;7.60;3.38;;;12.20;99.90;;;;;;5005641;28;20087;-53
2023/09/14 03:28:03;;;;;;;8.57;3.35;;;12.10;99.90;;;;;;5005504;28;20054;-53
2023/09/14 03:30:29;;;;;;;6.13;3.58;;;12.10;99.90;;;;;;5001024;28;20050;-53
2023/09/14 03:32:54;;;;;;;6.10;3.33;;;12.10;99.90;;;;;;4993548;28;20796;-51
2023/09/14 03:35:20;;;;;;;7.97;3.35;;;12.00;99.90;;;;;;4985941;28;20117;-50
2023/09/14 03:37:46;;;;;;;9.10;3.60;;;12.00;99.90;;;;;;4985431;28;20053;-52
2023/09/14 03:40:11;;;;;;;8.38;3.30;;;11.90;99.90;;;;;;4968427;28;20100;-50
2023/09/14 03:42:37;;;;;;;8.45;3.42;;;11.90;99.90;;;;;;4986179;28;20108;-52
2023/09/14 03:45:04;;;;;;;9.18;3.90;;;11.90;99.90;;;;;;4985117;28;20047;-51
2023/09/14 03:47:30;;;;;;;7.07;3.45;;;11.80;99.90;;;;;;4984532;28;20512;-52
2023/09/14 03:49:55;;;;;;;8.85;3.60;;;11.90;99.90;;;;;;4985540;28;20077;-54
2023/09/14 03:52:21;;;;;;;8.23;3.65;;;11.90;99.90;;;;;;4986156;28;20044;-53
2023/09/14 03:54:46;;;;;;;8.35;3.65;;;11.80;99.90;;;;;;4984510;28;20039;-51
2023/09/14 03:57:15;;;;;;;7.57;3.38;;;11.80;99.90;;;;;;4985098;28;20078;-52
2023/09/14 03:59:42;;;;;;;9.05;3.85;;;11.80;99.90;;;;;;4985506;28;20420;-52
2023/09/14 04:02:08;;;;;;;8.20;3.40;;;11.80;99.90;;;;;;4984124;28;20046;-50
2023/09/14 04:04:34;;;;;;;8.40;3.42;;;11.80;99.90;;;;;;4985197;28;20093;-52
2023/09/14 04:07:00;;;;;;;6.80;4.20;;;11.70;99.90;;;;;;4984445;28;20058;-52
2023/09/14 04:09:29;;;;;;;5.97;3.45;;;11.60;99.90;;;;;;4997258;28;20065;-52
2023/09/14 04:11:55;;;;;;;7.82;3.38;;;11.70;99.90;;;;;;5003855;28;20092;-53
2023/09/14 04:14:21;;;;;;;10.32;3.67;;;11.60;99.90;;;;;;5004689;28;20049;-53
2023/09/14 04:16:47;;;;;;;12.23;3.72;;;11.70;99.90;;;;;;5004032;28;20046;-49
2023/09/14 04:19:14;;;;;;;7.68;3.55;;;11.60;99.90;;;;;;5004387;28;20455;-50
2023/09/14 04:21:41;;;;;;;7.88;3.28;;;11.80;99.90;;;;;;5005342;28;20804;-51
2023/09/14 04:24:07;;;;;;;9.43;3.50;;;11.60;99.90;;;;;;5004047;28;20058;-50
2023/09/14 04:26:33;;;;;;;5.97;3.10;;;11.60;99.90;;;;;;4987245;28;20049;-52
2023/09/14 04:28:59;;;;;;;8.88;3.63;;;11.90;99.90;;;;;;5004051;28;20045;-51
2023/09/14 04:31:25;;;;;;;7.43;3.47;;;11.60;99.90;;;;;;4979431;28;20053;-54
2023/09/14 04:33:51;;;;;;;9.25;3.28;;;11.60;99.90;;;;;;4986481;28;20046;-53
2023/09/14 04:36:17;;;;;;;8.82;3.30;;;11.60;99.90;;;;;;4984855;28;20552;-49
2023/09/14 04:38:43;;;;;;;6.70;3.47;;;11.50;99.90;;;;;;4966782;28;20405;-52
2023/09/14 04:41:08;;;;;;;8.48;4.05;;;11.50;99.90;;;;;;4985144;28;20042;-52
2023/09/14 04:43:34;;;;;;;7.75;2.95;;;11.40;99.90;;;;;;4984842;28;20081;-52
2023/09/14 04:46:06;;;;;;;9.38;3.88;;;11.40;99.90;;;;;;4982676;28;20495;-52
2023/09/14 04:48:32;;;;;;;9.07;3.53;;;11.40;99.90;;;;;;4967033;28;20046;-52
2023/09/14 04:50:59;;;;;;;8.63;3.28;;;11.30;99.90;;;;;;4983802;28;20468;-53
2023/09/14 04:53:26;;;;;;;7.10;3.47;;;11.30;99.90;;;;;;4983646;28;20378;-53
2023/09/14 04:55:51;;;;;;;6.55;3.25;;;11.30;99.90;;;;;;4983976;28;20054;-52
2023/09/14 04:58:17;;;;;;;7.00;3.17;;;11.20;99.90;;;;;;4984732;28;20057;-53
2023/09/14 05:00:43;;;;;;;4.80;2.95;;;11.20;99.90;;;;;;4967154;28;20485;-50
2023/09/14 05:03:09;;;;;;;6.35;3.08;;;11.20;99.90;;;;;;4983773;28;20394;-54
2023/09/14 05:05:34;;;;;;;7.80;2.90;;;11.10;99.90;;;;;;4983262;28;20062;-54
2023/09/14 05:08:00;;;;;;;8.30;3.20;;;11.10;99.90;;;;;;4985142;28;20046;-53
2023/09/14 05:10:27;;;;;;;7.88;3.28;;;11.10;99.90;;;;;;4984774;28;20074;-52
2023/09/14 05:12:52;;;;;;;7.05;3.20;;;11.10;99.90;;;;;;4983992;28;20130;-52
2023/09/14 05:15:18;;;;;;;6.20;3.42;;;11.00;99.90;;;;;;4967271;28;20548;-55
2023/09/14 05:17:44;;;;;;;6.93;3.33;;;11.00;99.90;;;;;;4983817;28;20424;-53
2023/09/14 05:20:11;;;;;;;6.95;3.22;;;11.20;99.90;;;;;;4983631;28;20123;-53
2023/09/14 05:22:38;;;;;;;10.02;3.20;;;11.00;99.90;;;;;;4984351;28;20045;-47
2023/09/14 05:25:05;;;;;;;6.75;3.33;;;10.90;99.90;;;;;;4984343;28;20133;-49
2023/09/14 05:27:40;;;;;;;8.02;3.30;;;10.80;99.90;;;;;;4983991;28;20096;-52
2023/09/14 05:30:10;;;;;;;7.95;3.45;;;10.90;99.90;;;;;;4984763;28;20060;-54
2023/09/14 05:32:36;;;;;;;8.73;3.47;;;10.90;99.90;;;;;;4994145;28;20045;-54
2023/09/14 05:35:02;;;;;;;7.55;3.50;;;10.90;99.90;;;;;;4985567;28;20038;-53
2023/09/14 05:37:28;;;;;;;6.88;3.25;;;10.90;99.90;;;;;;5007502;28;20038;-54
2023/09/14 05:39:54;;;;;;;6.85;3.55;;;10.90;99.90;;;;;;4991038;28;20116;-52
2023/09/14 05:42:22;;;;;;;9.02;3.58;;;10.90;99.90;;;;;;4988489;28;20070;-52
2023/09/14 05:44:48;;;;;;;11.35;3.53;;;10.90;99.90;;;;;;4970224;28;20444;-52
2023/09/14 05:47:14;;;;;;;7.28;3.42;;;10.90;99.90;;;;;;4986849;28;20089;-51
2023/09/14 05:49:40;;;;;;;8.18;3.65;;;11.00;99.90;;;;;;4987931;28;20125;-50
2023/09/14 05:52:06;;;;;;;8.95;3.90;;;11.00;99.90;;;;;;4986885;28;20046;-55
2023/09/14 05:54:32;;;;;;;9.80;3.63;;;11.80;99.90;;;;;;4986662;28;20042;-54
2023/09/14 05:56:57;;;;;;;6.60;3.50;;;12.00;99.90;;;;;;4987531;28;20042;-51
2023/09/14 05:59:23;;;;;;;7.57;3.58;;;11.00;99.90;;;;;;4969797;28;20050;-53
2023/09/14 06:01:50;;;;;;;9.05;3.63;;;11.00;99.90;;;;;;4968194;28;20047;-48
2023/09/14 06:04:16;;;;;;;6.05;3.33;;;11.00;99.90;;;;;;4987665;28;20460;-50
2023/09/14 06:06:42;;;;;;;9.95;3.60;;;11.00;99.90;;;;;;4987593;28;20120;-52
2023/09/14 06:09:08;;;;;;;8.00;3.10;;;11.10;99.90;;;;;;4986684;28;20058;-50
2023/09/14 06:11:33;;;;;;;8.55;3.35;;;11.10;99.90;;;;;;4985018;28;20050;-53
2023/09/14 06:13:59;;;;;;;9.35;3.35;;;11.20;99.90;;;;;;4986071;28;20038;-54
2023/09/14 06:16:25;;;;;;;6.63;3.50;;;11.20;99.90;;;;;;4985791;28;20551;-54
2023/09/14 06:18:50;;;;;;;9.05;3.22;;;11.30;99.90;;;;;;4985275;28;20046;-51
2023/09/14 06:21:16;;;;;;;6.93;3.25;;;11.40;99.90;;;;;;4984766;28;20042;-49
2023/09/14 06:23:41;;;;;;;9.35;3.50;;;11.50;99.90;;;;;;4986501;28;20048;-54
2023/09/14 06:26:07;;;;;;;9.63;2.97;;;11.60;99.90;;;;;;4986892;28;20844;-55
2023/09/14 06:28:33;;;;;;;6.78;3.25;;;11.60;99.90;;;;;;4969717;28;20065;-54
2023/09/14 06:30:59;;;;;;;10.27;2.97;;;11.70;99.90;;;;;;4997866;28;20693;-54
2023/09/14 06:33:24;;;;;;;6.32;3.30;;;11.70;99.90;;;;;;4991525;28;20057;-52
2023/09/14 06:35:50;;;;;;;6.78;3.08;;;11.70;99.90;;;;;;4985855;28;20470;-52
2023/09/14 06:38:16;;;;;;;6.65;2.88;;;11.80;99.90;;;;;;4986122;28;20038;-48
2023/09/14 06:40:41;;;;;;;6.50;2.67;;;11.90;99.90;;;;;;4988222;28;20046;-54
2023/09/14 06:43:07;;;;;;;11.77;3.20;;;11.90;99.90;;;;;;5005383;28;20038;-54
2023/09/14 06:45:33;;;;;;;5.80;2.63;;;12.20;99.90;;;;;;5004280;28;20830;-53
2023/09/14 06:48:00;;;;;;;6.05;2.60;;;12.80;99.90;;;;;;5005033;28;20069;-54
2023/09/14 06:50:25;;;;;;;6.85;2.45;;;13.20;99.90;;;;;;4997764;28;20038;-52
2023/09/14 06:52:51;;;;;;;7.18;2.60;;;13.60;99.90;;;;;;4993254;28;20053;-51
2023/09/14 06:55:17;;;;;;;7.50;2.70;;;14.00;99.90;;;;;;4985976;28;20126;-52
2023/09/14 06:57:42;;;;;;;5.72;2.70;;;14.40;99.90;;;;;;4968673;28;20050;-54
2023/09/14 07:00:16;;;;;;;5.43;2.53;;;14.60;99.90;;;;;;4986127;28;20038;-54
2023/09/14 07:02:43;;;;;;;6.03;2.65;;;14.70;99.90;;;;;;4973291;28;20538;-49
2023/09/14 07:05:12;;;;;;;8.52;2.83;;;14.90;99.90;;;;;;5001057;28;20463;-53
2023/09/14 07:07:38;;;;;;;7.75;2.70;;;14.80;99.90;;;;;;4999787;28;20147;-52
2023/09/14 07:10:04;;;;;;;5.15;2.42;;;14.60;99.90;;;;;;5001000;28;20416;-52
2023/09/14 07:12:30;;;;;;;8.63;2.65;;;14.30;99.90;;;;;;4994779;28;20562;-52
2023/09/14 07:14:55;;;;;;;9.00;3.17;;;14.20;99.90;;;;;;5006158;28;20216;-54
2023/09/14 07:17:21;;;;;;;6.30;2.22;;;13.90;99.90;;;;;;4987838;28;20050;-54
2023/09/14 07:19:47;;;;;;;6.78;3.00;;;13.70;99.90;;;;;;4988212;28;20085;-51
2023/09/14 07:22:12;;;;;;;7.53;2.88;;;13.80;99.90;;;;;;5003110;28;20143;-54
2023/09/14 07:24:38;;;;;;;7.18;2.45;;;13.50;99.90;;;;;;5000108;28;20361;-49
2023/09/14 07:27:04;;;;;;;10.40;2.47;;;13.50;99.90;;;;;;4990682;28;20417;-54
2023/09/14 07:29:29;;;;;;;7.32;2.70;;;13.50;99.90;;;;;;5002368;28;20046;-52
2023/09/14 07:31:57;;;;;;;6.45;2.90;;;13.50;99.90;;;;;;4992920;28;20046;-54
2023/09/14 07:34:23;;;;;;;10.45;2.70;;;14.00;99.90;;;;;;4987305;28;20077;-53
2023/09/14 07:36:49;;;;;;;5.20;2.67;;;13.60;99.90;;;;;;5001307;28;20073;-52
2023/09/14 07:39:15;;;;;;;9.80;2.95;;;13.60;99.90;;;;;;5004025;28;20646;-54
2023/09/14 07:41:41;;;;;;;8.18;2.65;;;13.70;99.90;;;;;;5005650;28;20034;-52
2023/09/14 07:44:07;;;;;;;9.07;2.65;;;13.80;99.90;;;;;;5005228;28;20665;-53
2023/09/14 07:46:33;;;;;;;7.63;2.50;;;14.00;99.90;;;;;;5004153;28;20049;-52
2023/09/14 07:48:59;;;;;;;8.07;2.53;;;14.20;99.90;;;;;;4971823;28;20045;-54
2023/09/14 07:51:25;;;;;;;6.50;2.45;;;14.20;99.90;;;;;;5004992;28;20053;-54
2023/09/14 07:53:51;;;;;;;8.23;2.35;;;14.30;99.90;;;;;;5006016;28;20038;-52
2023/09/14 07:56:17;;;;;;;9.68;2.90;;;14.40;99.90;;;;;;4986586;28;20054;-54
2023/09/14 07:58:42;;;;;;;11.38;2.75;;;14.40;99.90;;;;;;5004370;28;20068;-53
2023/09/14 08:01:08;;;;;;;21.00;4.15;;;14.50;99.90;;;;;;5004069;28;20746;-51
2023/09/14 08:03:33;;;;;;;22.55;4.22;;;14.60;99.90;;;;;;5004283;28;20045;-49
2023/09/14 08:05:59;;;;;;;19.30;3.50;;;14.70;99.90;;;;;;5004550;28;20835;-49
2023/09/14 08:08:25;;;;;;;23.92;4.28;;;14.80;99.90;;;;;;5003575;28;20096;-52
2023/09/14 08:10:52;;;;;;;21.60;3.85;;;14.90;99.90;;;;;;4978007;28;20054;-54
2023/09/14 08:13:18;;;;;;;22.20;3.65;;;15.00;99.90;;;;;;4984758;28;20101;-54
2023/09/14 08:15:44;;;;;;;19.98;3.58;;;15.10;99.90;;;;;;4984492;28;20112;-51
2023/09/14 08:18:09;;;;;;;12.57;2.42;;;15.10;99.90;;;;;;5004112;28;20561;-53
2023/09/14 08:20:47;;;;;;;15.18;2.78;;;15.30;99.90;;;;;;4979802;28;20042;-54
2023/09/14 08:23:19;;;;;;;7.75;2.28;;;15.40;99.90;;;;;;4993421;28;20049;-53
2023/09/14 08:25:46;;;;;;;10.50;1.60;;;15.60;99.90;;;;;;5004293;28;20053;-53
2023/09/14 08:28:16;;;;;;;6.90;1.73;;;15.70;99.90;;;;;;5003207;28;20053;-54
2023/09/14 08:30:42;;;;;;;5.38;1.52;;;15.80;99.90;;;;;;4998952;28;20129;-52
2023/09/14 08:33:08;;;;;;;5.80;1.60;;;15.90;99.90;;;;;;4992971;28;20128;-56
2023/09/14 08:35:35;;;;;;;7.75;1.80;;;16.00;99.90;;;;;;5003520;28;20485;-50
2023/09/14 08:38:05;;;;;;;11.02;1.83;;;16.10;99.90;;;;;;4997928;28;20050;-55
2023/09/14 08:40:31;;;;;;;3.22;1.35;;;16.30;99.90;;;;;;4999414;28;20061;-52
2023/09/14 08:42:59;;;;;;;3.75;1.45;;;16.40;99.90;;;;;;5003653;28;20129;-54
2023/09/14 08:45:32;;;;;;;5.55;1.20;;;16.50;99.90;;;;;;5002699;28;20404;-55
2023/09/14 08:48:01;;;;;;;4.65;1.10;;;16.60;99.90;;;;;;5003838;28;20113;-54
2023/09/14 08:50:30;;;;;;;5.63;1.45;;;16.60;99.90;;;;;;4986575;28;20050;-53
2023/09/14 08:52:56;;;;;;;2.92;1.05;;;16.80;99.90;;;;;;5002707;28;20109;-54
2023/09/14 08:55:24;;;;;;;7.97;1.30;;;16.90;99.90;;;;;;4986863;28;20531;-53
2023/09/14 08:57:51;;;;;;;6.05;1.35;;;17.30;99.90;;;;;;5004300;28;20086;-53
2023/09/14 09:00:18;;;;;;;3.53;1.10;;;18.00;98.60;;;;;;5002778;28;20129;-54
2023/09/14 09:02:47;;;;;;;3.75;1.20;;;18.50;95.30;;;;;;5003865;28;20058;-53
2023/09/14 09:05:14;;;;;;;4.68;1.25;;;19.00;94.50;;;;;;5003043;28;20081;-56
2023/09/14 09:07:42;;;;;;;7.30;0.98;;;19.30;94.20;;;;;;5003520;28;20041;-54
2023/09/14 09:10:24;;;;;;;3.55;0.98;;;19.60;93.80;;;;;;5003849;28;20663;-54
2023/09/14 09:12:52;;;;;;;4.63;1.13;;;19.90;93.00;;;;;;5004036;28;20481;-55
2023/09/14 09:15:17;;;;;;;75.18;6.03;;;20.10;93.20;;;;;;5002592;28;20045;-55
2023/09/14 09:17:44;;;;;;;10.23;2.22;;;20.40;93.60;;;;;;5003279;28;20042;-55
2023/09/14 09:20:22;;;;;;;10.27;1.77;;;20.40;93.00;;;;;;5003515;28;20053;-55
2023/09/14 09:22:50;;;;;;;11.65;1.70;;;20.30;92.70;;;;;;5002151;28;20073;-56
2023/09/14 09:25:17;;;;;;;92.95;8.02;;;20.40;92.80;;;;;;4986354;28;20149;-56
2023/09/14 09:27:44;;;;;;;18.40;2.15;;;20.50;93.10;;;;;;5004458;28;20572;-57
2023/09/14 09:30:10;;;;;;;4.25;1.20;;;20.60;92.40;;;;;;4999120;28;20062;-55
2023/09/14 09:32:40;;;;;;;77.32;6.53;;;20.40;91.40;;;;;;5003502;28;20046;-56
2023/09/14 09:35:20;;;;;;;12.18;2.15;;;20.20;90.90;;;;;;4988708;28;20046;-58
2023/09/14 09:37:46;;;;;;;23.95;2.30;;;20.30;91.20;;;;;;4994628;28;20130;-58
2023/09/14 09:40:23;;;;;;;9.82;1.73;;;20.20;91.70;;;;;;4998276;28;20061;-59
2023/09/14 09:42:50;;;;;;;18.48;2.35;;;20.20;90.90;;;;;;4966619;28;20054;-59
2023/09/14 09:45:18;;;;;;;19.75;2.33;;;20.10;91.10;;;;;;4996139;28;20049;-57
2023/09/14 09:47:45;;;;;;;19.35;2.17;;;20.20;91.80;;;;;;4985086;28;20473;-58
2023/09/14 09:50:14;;;;;;;10.27;1.70;;;20.30;91.10;;;;;;4983803;28;20038;-59
2023/09/14 09:52:42;;;;;;;7.00;1.67;;;20.40;91.10;;;;;;4966193;28;20693;-58
2023/09/14 09:55:17;;;;;;;4.82;1.15;;;20.50;91.50;;;;;;4994438;28;20040;-58
2023/09/14 09:57:59;;;;;;;5.43;1.25;;;20.50;91.70;;;;;;5003401;28;20141;-57
2023/09/14 10:00:36;;;;;;;6.60;1.40;;;20.70;90.80;;;;;;4988998;28;20085;-60
2023/09/14 10:03:03;;;;;;;5.65;1.23;;;20.50;90.70;;;;;;4977445;28;20112;-58
2023/09/14 10:05:28;;;;;;;5.68;1.20;;;20.10;90.90;;;;;;4983155;28;20113;-59
2023/09/14 10:07:59;;;;;;;5.82;1.42;;;19.90;91.60;;;;;;4984459;28;20447;-57
2023/09/14 10:10:32;;;;;;;3.85;1.30;;;19.70;92.10;;;;;;4984170;28;20047;-57
2023/09/14 10:13:01;;;;;;;7.43;1.42;;;19.40;91.60;;;;;;4983583;28;20053;-57
2023/09/14 10:15:27;;;;;;;3.50;1.40;;;19.10;91.40;;;;;;4966618;28;20125;-57
2023/09/14 10:17:55;;;;;;;4.45;1.17;;;19.10;91.90;;;;;;4983523;28;20043;-57
2023/09/14 10:20:22;;;;;;;5.85;1.40;;;19.10;92.20;;;;;;4983234;28;20069;-57
2023/09/14 10:22:48;;;;;;;5.50;1.55;;;19.40;92.00;;;;;;4985061;28;20046;-58
2023/09/14 10:25:18;;;;;;;5.75;1.70;;;19.70;91.60;;;;;;4987519;28;20046;-58
2023/09/14 10:27:44;;;;;;;9.25;1.48;;;19.80;91.80;;;;;;4987030;28;20460;-59
2023/09/14 10:30:14;;;;;;;4.28;1.30;;;20.00;92.30;;;;;;4991040;28;20052;-58
2023/09/14 10:32:42;;;;;;;6.65;1.85;;;20.40;92.10;;;;;;4997749;28;20488;-58
2023/09/14 10:35:09;;;;;;;4.93;1.70;;;20.70;91.80;;;;;;5006633;28;20048;-58
2023/09/14 10:37:35;;;;;;;4.88;1.40;;;20.90;91.00;;;;;;4997589;28;20785;-58
2023/09/14 10:40:04;;;;;;;5.57;1.30;;;20.60;91.10;;;;;;5006837;28;20124;-58
2023/09/14 10:42:30;;;;;;;4.07;1.30;;;20.10;91.50;;;;;;5006396;28;20542;-60
2023/09/14 10:44:56;;;;;;;6.65;1.63;;;19.80;92.30;;;;;;4988280;28;20050;-58
2023/09/14 10:47:27;;;;;;;5.88;1.67;;;19.60;92.50;;;;;;5006257;28;20050;-58
2023/09/14 10:49:54;;;;;;;4.65;1.35;;;19.30;92.40;;;;;;4989043;28;20141;-58
2023/09/14 10:52:28;;;;;;;8.02;1.67;;;19.00;92.30;;;;;;5005850;28;20041;-57
2023/09/14 10:54:55;;;;;;;8.00;2.00;;;18.90;92.30;;;;;;5006642;28;20056;-59
2023/09/14 10:57:25;;;;;;;7.30;1.77;;;18.70;92.80;;;;;;5006888;28;20507;-57
2023/09/14 10:59:57;;;;;;;6.38;1.60;;;18.70;92.80;;;;;;5005747;28;20440;-58
2023/09/14 11:02:43;;;;;;;5.90;1.40;;;18.70;92.50;;;;;;4988892;28;20038;-57
2023/09/14 11:05:19;;;;;;;5.63;1.63;;;18.70;92.80;;;;;;4988375;28;20062;-57
2023/09/14 11:07:53;;;;;;;7.95;1.90;;;18.70;92.70;;;;;;5006085;28;20140;-58
2023/09/14 11:10:21;;;;;;;;;;;18.70;92.80;;;;;;4997982;28;20508;-56
2023/09/14 11:12:47;;;;;;;6.15;1.80;;;18.60;93.00;;;;;;4986257;28;19922;-57
2023/09/14 11:15:16;;;;;;;9.48;1.58;;;18.60;93.00;;;;;;4988177;28;20038;-58
2023/09/14 11:17:46;;;;;;;5.38;1.70;;;18.70;92.80;;;;;;4978272;28;20131;-57
2023/09/14 11:20:24;;;;;;;6.82;1.50;;;18.70;92.70;;;;;;4996106;28;20562;-57
2023/09/14 11:22:51;;;;;;;5.80;1.63;;;18.90;92.80;;;;;;4986018;28;20520;-59
2023/09/14 11:25:41;;;;;;;5.95;1.52;;;19.20;92.50;;;;;;4986804;28;20053;-59
2023/09/14 11:28:08;;;;;;;6.00;1.40;;;19.60;92.30;;;;;;4986261;28;20054;-58
2023/09/14 11:30:44;;;;;;;5.78;1.70;;;19.90;91.40;;;;;;4987277;28;20054;-58
2023/09/14 11:33:10;;;;;;;5.30;1.65;;;19.90;90.90;;;;;;4997449;28;20053;-58
2023/09/14 11:35:39;;;;;;;6.00;1.67;;;19.70;90.70;;;;;;5005778;28;20049;-57
2023/09/14 11:38:17;;;;;;;8.48;2.08;;;19.50;91.10;;;;;;5005252;28;20054;-58
2023/09/14 11:40:43;;;;;;;7.82;1.58;;;19.50;91.90;;;;;;5005090;28;20049;-57
2023/09/14 11:43:10;;;;;;;5.68;1.63;;;19.80;92.40;;;;;;5005712;28;20159;-57
2023/09/14 11:45:41;;;;;;;6.85;1.63;;;20.20;92.40;;;;;;5003558;28;20053;-57
2023/09/14 11:48:08;;;;;;;6.50;1.40;;;20.60;91.80;;;;;;4986741;28;20046;-57
2023/09/14 11:50:34;;;;;;;7.45;1.90;;;20.90;91.30;;;;;;5005092;28;20042;-59
2023/09/14 11:53:00;;;;;;;6.78;1.65;;;21.10;90.70;;;;;;4998421;28;20058;-59
2023/09/14 11:55:26;;;;;;;5.18;1.60;;;21.00;90.90;;;;;;4988066;28;20655;-52
2023/09/14 11:57:52;;;;;;;5.00;1.67;;;21.20;91.30;;;;;;4984718;28;20496;-58
2023/09/14 12:00:21;;;;;;;5.80;1.50;;;21.40;91.10;;;;;;4984652;28;20121;-57
2023/09/14 12:02:48;;;;;;;7.40;1.63;;;21.70;91.20;;;;;;4994320;28;20117;-58
2023/09/14 12:05:15;;;;;;;11.18;2.13;;;22.00;91.20;;;;;;5004220;28;20046;-56
2023/09/14 12:07:41;;;;;;;9.57;2.40;;;22.20;91.00;;;;;;5004320;28;20045;-56
2023/09/14 12:10:25;;;;;;;4.38;1.48;;;22.30;91.10;;;;;;5005247;28;20108;-58
2023/09/14 12:12:50;;;;;;;4.63;1.70;;;22.40;90.80;;;;;;5004685;28;20046;-57
2023/09/14 12:15:18;;;;;;;6.95;1.58;;;22.30;90.60;;;;;;4995315;28;20061;-57
2023/09/14 12:17:52;;;;;;;6.80;2.33;;;22.20;90.30;;;;;;5004583;28;20069;-58
2023/09/14 12:20:19;;;;;;;5.38;1.58;;;22.00;90.70;;;;;;5004710;28;20061;-57
2023/09/14 12:22:46;;;;;;;5.05;1.60;;;21.70;90.40;;;;;;4998348;28;20113;-58
2023/09/14 12:25:14;;;;;;;9.65;1.70;;;21.50;90.70;;;;;;4991578;28;20046;-60
2023/09/14 12:27:40;;;;;;;6.70;1.95;;;21.30;91.10;;;;;;4985714;28;20155;-58
2023/09/14 12:30:09;;;;;;;5.95;1.80;;;21.00;91.00;;;;;;4986269;28;20038;-59
2023/09/14 12:32:38;;;;;;;5.95;1.55;;;20.80;90.60;;;;;;4993640;28;20046;-60
2023/09/14 12:35:05;;;;;;;5.78;1.70;;;20.50;90.70;;;;;;4996105;28;20029;-57
2023/09/14 12:37:31;;;;;;;5.63;1.73;;;20.30;91.40;;;;;;4999049;28;20149;-58
2023/09/14 12:39:56;;;;;;;5.85;1.67;;;20.30;91.50;;;;;;4986943;28;20058;-58
2023/09/14 12:42:24;;;;;;;4.60;1.70;;;20.20;91.40;;;;;;4984026;28;20436;-57
2023/09/14 12:44:52;;;;;;;6.15;1.90;;;20.20;90.80;;;;;;4988551;28;20050;-57
2023/09/14 12:47:18;;;;;;;6.68;1.80;;;20.00;91.00;;;;;;4994469;28;20057;-59